createdAt,value
2022-09-15T00:18:40.072Z,8.93
2022-09-15T00:21:21.109Z,9.20
2022-09-15T00:39:54.995Z,7.80
2022-09-15T00:42:24.339Z,7.67
2022-09-15T00:44:56.212Z,7.53
2022-09-15T00:47:28.486Z,8.03
2022-09-15T00:50:02.293Z,7.30
2022-09-15T00:52:38.588Z,7.40
2022-09-15T00:55:13.922Z,7.70
2022-09-15T00:57:47.522Z,7.40
2022-09-15T01:03:03.146Z,6.70
2022-09-15T01:05:36.886Z,7.13
2022-09-15T01:08:10.603Z,6.43
2022-09-15T01:10:41.919Z,7.23
2022-09-15T01:13:13.128Z,6.53
2022-09-15T01:15:55.790Z,6.33
2022-09-15T01:18:36.150Z,6.87
2022-09-15T01:21:22.955Z,6.67
2022-09-15T01:24:17.705Z,6.60
2022-09-15T01:26:59.566Z,6.30
2022-09-15T01:29:55.015Z,5.80
2022-09-15T01:32:46.081Z,6.03
2022-09-15T01:35:23.596Z,6.93
2022-09-15T01:37:56.751Z,6.87
2022-09-15T01:40:28.747Z,6.27
2022-09-15T01:42:57.753Z,6.03
2022-09-15T01:45:31.629Z,6.40
2022-09-15T01:48:02.556Z,6.30
2022-09-15T01:50:48.122Z,5.60
2022-09-15T01:53:19.067Z,5.67
2022-09-15T01:55:53.462Z,5.17
2022-09-15T01:58:22.080Z,5.30
2022-09-15T02:00:56.644Z,5.97
2022-09-15T02:03:33.673Z,6.90
2022-09-15T02:06:07.621Z,6.20
2022-09-15T02:08:45.263Z,6.37
2022-09-15T02:11:17.304Z,6.90
2022-09-15T02:13:57.777Z,6.77
2022-09-15T02:16:31.261Z,6.80
2022-09-15T02:19:11.195Z,7.00
2022-09-15T02:21:55.038Z,6.90
2022-09-15T02:24:29.838Z,6.80
2022-09-15T02:26:59.545Z,6.80
2022-09-15T02:29:29.269Z,6.97
2022-09-15T02:32:06.865Z,6.30
2022-09-15T02:34:38.384Z,6.37
2022-09-15T02:37:07.648Z,6.20
2022-09-15T02:39:39.909Z,6.43
2022-09-15T02:42:08.645Z,5.80
2022-09-15T02:44:37.090Z,7.40
2022-09-15T02:47:07.126Z,7.07
2022-09-15T02:49:35.414Z,7.17
2022-09-15T02:52:04.401Z,6.93
2022-09-15T02:54:32.810Z,6.77
2022-09-15T02:57:01.166Z,5.83
2022-09-15T02:59:50.585Z,6.97
2022-09-15T03:02:20.812Z,7.03
2022-09-15T03:04:49.776Z,5.93
2022-09-15T03:07:18.697Z,6.70
2022-09-15T03:09:47.265Z,6.57
2022-09-15T03:12:15.974Z,7.40
2022-09-15T03:14:44.520Z,6.53
2022-09-15T03:17:12.768Z,6.43
2022-09-15T03:19:42.422Z,6.97
2022-09-15T03:22:11.071Z,7.50
2022-09-15T03:24:42.226Z,8.50
2022-09-15T03:27:10.555Z,7.23
2022-09-15T03:29:38.817Z,7.57
2022-09-15T03:32:07.484Z,8.50
2022-09-15T03:34:36.109Z,8.67
2022-09-15T03:37:05.816Z,8.37
2022-09-15T03:39:34.093Z,8.60
2022-09-15T03:42:02.336Z,8.90
2022-09-15T03:44:30.637Z,7.93
2022-09-15T03:46:59.248Z,7.47
2022-09-15T03:49:27.515Z,7.80
2022-09-15T03:51:55.905Z,9.00
2022-09-15T03:54:25.972Z,7.53
2022-09-15T03:56:54.597Z,8.70
2022-09-15T03:59:22.907Z,8.87
2022-09-15T04:01:51.519Z,8.83
2022-09-15T04:04:19.810Z,8.23
2022-09-15T04:06:48.174Z,9.03
2022-09-15T04:09:16.479Z,7.80
2022-09-15T04:11:46.226Z,7.87
2022-09-15T04:14:14.504Z,6.50
2022-09-15T04:16:42.891Z,7.47
2022-09-15T04:19:11.754Z,6.57
2022-09-15T04:21:40.034Z,6.17
2022-09-15T04:24:08.590Z,5.20
2022-09-15T04:26:38.410Z,5.13
2022-09-15T04:29:14.504Z,5.20
2022-09-15T04:31:43.107Z,4.93
2022-09-15T04:34:11.679Z,4.70
2022-09-15T04:36:40.061Z,4.93
2022-09-15T04:39:08.362Z,5.30
2022-09-15T04:41:36.766Z,5.70
2022-09-15T04:44:05.156Z,5.70
2022-09-15T04:46:34.898Z,6.17
2022-09-15T04:49:03.588Z,5.53
2022-09-15T04:51:31.941Z,6.20
2022-09-15T04:54:00.385Z,7.37
2022-09-15T04:56:29.034Z,7.00
2022-09-15T04:59:03.611Z,7.90
2022-09-15T05:01:36.263Z,7.33
2022-09-15T05:04:05.948Z,10.20
2022-09-15T05:06:35.870Z,10.37
2022-09-15T05:09:10.034Z,10.43
2022-09-15T05:11:39.327Z,10.60
2022-09-15T05:14:09.602Z,11.07
2022-09-15T05:16:40.116Z,11.20
2022-09-15T05:19:09.074Z,11.50
2022-09-15T05:21:37.630Z,11.20
2022-09-15T05:24:06.440Z,11.50
2022-09-15T05:26:34.831Z,11.20
2022-09-15T05:29:03.207Z,11.07
2022-09-15T05:31:33.780Z,10.73
2022-09-15T05:34:06.075Z,11.93
2022-09-15T05:36:35.062Z,12.70
2022-09-15T05:39:03.466Z,12.67
2022-09-15T05:41:31.881Z,12.67
2022-09-15T05:44:00.814Z,12.43
2022-09-15T07:49:30.047Z,13.37
2022-09-15T15:18:56.880Z,4.30
2022-09-15T15:21:55.587Z,3.47
2022-09-15T15:24:47.243Z,3.60
2022-09-15T17:31:14.977Z,2.97
2022-09-15T17:34:12.959Z,2.70
2022-09-15T19:05:21.939Z,2.80
2022-09-15T20:57:33.642Z,2.27
2022-09-15T21:00:07.863Z,2.23
2022-09-15T21:02:37.068Z,3.23
2022-09-15T21:05:06.817Z,2.90
2022-09-15T21:07:56.039Z,2.70
2022-09-15T21:10:28.550Z,2.33
2022-09-15T21:13:33.105Z,2.57
2022-09-15T21:16:06.837Z,2.20
2022-09-15T21:18:40.683Z,2.27
2022-09-15T21:21:12.602Z,2.20
2022-09-15T21:23:46.930Z,2.50
2022-09-15T21:26:18.491Z,2.00
2022-09-15T21:29:10.053Z,2.23
2022-09-15T21:31:39.035Z,2.27
2022-09-15T21:34:08.496Z,2.37
2022-09-15T21:36:38.574Z,2.00
2022-09-15T21:39:07.743Z,2.27
2022-09-15T21:41:36.097Z,2.10
2022-09-15T21:44:04.493Z,2.10
2022-09-15T21:46:35.504Z,2.10
2022-09-15T21:49:03.913Z,2.20
2022-09-15T21:51:32.266Z,2.23
2022-09-15T21:54:01.513Z,2.50
2022-09-15T21:56:30.834Z,2.10
2022-09-15T21:58:59.336Z,2.30
2022-09-15T22:01:30.277Z,2.00
2022-09-15T22:04:01.553Z,2.20
2022-09-15T22:06:31.877Z,1.77
2022-09-15T22:09:00.614Z,2.30
2022-09-15T22:11:29.553Z,2.20
2022-09-15T22:13:58.584Z,2.00
2022-09-15T22:16:27.146Z,1.93
2022-09-15T22:19:02.098Z,2.30
2022-09-15T22:21:32.639Z,2.47
2022-09-15T22:24:01.097Z,2.30
2022-09-15T22:26:36.613Z,2.17
2022-09-15T22:29:06.340Z,2.20
2022-09-15T22:31:35.800Z,2.03
2022-09-15T22:34:06.885Z,2.53
2022-09-15T22:36:38.862Z,2.60
2022-09-15T22:39:08.337Z,2.27
2022-09-15T22:41:38.878Z,2.50
2022-09-15T22:44:09.170Z,2.43
2022-09-15T22:46:37.584Z,2.20
2022-09-15T22:49:09.170Z,2.10
2022-09-15T22:51:37.970Z,2.10
2022-09-15T22:54:07.118Z,2.27
2022-09-15T22:57:13.187Z,2.10
2022-09-15T22:59:46.839Z,2.00
2022-09-15T23:02:15.931Z,2.43
2022-09-15T23:04:46.100Z,2.20
2022-09-15T23:07:16.671Z,2.17
2022-09-15T23:09:45.749Z,2.43
2022-09-15T23:12:15.481Z,2.33
2022-09-15T23:14:44.839Z,2.40
2022-09-15T23:17:14.011Z,2.70
2022-09-15T23:19:59.315Z,2.40
2022-09-15T23:22:28.106Z,2.60
2022-09-15T23:24:57.600Z,2.67
2022-09-15T23:27:26.472Z,2.60
2022-09-15T23:29:55.501Z,2.57
2022-09-15T23:32:24.429Z,2.20
2022-09-15T23:34:53.527Z,2.60
2022-09-15T23:37:23.666Z,2.20
2022-09-15T23:39:52.417Z,2.20
2022-09-15T23:42:20.747Z,2.30
2022-09-15T23:44:49.026Z,2.50
2022-09-15T23:47:17.308Z,2.53
2022-09-15T23:49:45.580Z,2.40
2022-09-15T23:52:13.827Z,2.17
2022-09-15T23:54:44.005Z,2.70
2022-09-15T23:57:12.343Z,2.60
2022-09-15T23:59:40.637Z,2.33
